sensor_id;sensor_type;location;lat;lon;timestamp;P1;durP1;ratioP1;P2;durP2;ratioP2
38208;SDS011;24016;52.102;11.584;2024-02-23T00:02:13;1.00;;;0.70;;
38208;SDS011;24016;52.102;11.584;2024-02-23T00:04:39;1.67;;;1.08;;
38208;SDS011;24016;52.102;11.584;2024-02-23T00:07:04;2.00;;;1.10;;
38208;SDS011;24016;52.102;11.584;2024-02-23T00:09:30;1.83;;;0.98;;
38208;SDS011;24016;52.102;11.584;2024-02-23T00:11:55;1.55;;;0.80;;
38208;SDS011;24016;52.102;11.584;2024-02-23T00:14:21;1.02;;;0.93;;
38208;SDS011;24016;52.102;11.584;2024-02-23T00:16:47;4.57;;;0.80;;
38208;SDS011;24016;52.102;11.584;2024-02-23T00:19:13;1.10;;;0.50;;
38208;SDS011;24016;52.102;11.584;2024-02-23T00:21:38;0.95;;;0.60;;
38208;SDS011;24016;52.102;11.584;2024-02-23T00:24:05;1.77;;;0.70;;
38208;SDS011;24016;52.102;11.584;2024-02-23T00:26:31;0.40;;;0.40;;
38208;SDS011;24016;52.102;11.584;2024-02-23T00:28:56;0.43;;;0.40;;
38208;SDS011;24016;52.102;11.584;2024-02-23T00:31:22;1.67;;;0.80;;
38208;SDS011;24016;52.102;11.584;2024-02-23T00:33:48;0.70;;;0.50;;
38208;SDS011;24016;52.102;11.584;2024-02-23T00:36:13;0.70;;;0.50;;
38208;SDS011;24016;52.102;11.584;2024-02-23T00:38:39;1.83;;;0.63;;
38208;SDS011;24016;52.102;11.584;2024-02-23T00:41:04;1.00;;;0.38;;
38208;SDS011;24016;52.102;11.584;2024-02-23T00:43:37;1.13;;;0.68;;
38208;SDS011;24016;52.102;11.584;2024-02-23T00:46:03;1.88;;;0.40;;
38208;SDS011;24016;52.102;11.584;2024-02-23T00:48:29;0.95;;;0.50;;
38208;SDS011;24016;52.102;11.584;2024-02-23T00:50:55;3.40;;;0.40;;
38208;SDS011;24016;52.102;11.584;2024-02-23T00:53:20;0.50;;;0.50;;
38208;SDS011;24016;52.102;11.584;2024-02-23T00:55:46;0.50;;;0.50;;
38208;SDS011;24016;52.102;11.584;2024-02-23T00:58:12;0.60;;;0.60;;
38208;SDS011;24016;52.102;11.584;2024-02-23T01:00:37;0.60;;;0.40;;
38208;SDS011;24016;52.102;11.584;2024-02-23T01:03:03;0.75;;;0.50;;
38208;SDS011;24016;52.102;11.584;2024-02-23T01:05:29;1.38;;;0.57;;
38208;SDS011;24016;52.102;11.584;2024-02-23T01:07:54;1.33;;;0.68;;
38208;SDS011;24016;52.102;11.584;2024-02-23T01:10:20;0.40;;;0.40;;
38208;SDS011;24016;52.102;11.584;2024-02-23T01:12:45;1.85;;;0.40;;
38208;SDS011;24016;52.102;11.584;2024-02-23T01:15:11;0.32;;;0.30;;
38208;SDS011;24016;52.102;11.584;2024-02-23T01:17:36;2.00;;;0.52;;
38208;SDS011;24016;52.102;11.584;2024-02-23T01:20:03;1.08;;;0.30;;
38208;SDS011;24016;52.102;11.584;2024-02-23T01:22:29;1.05;;;0.45;;
38208;SDS011;24016;52.102;11.584;2024-02-23T01:24:54;1.27;;;0.43;;
38208;SDS011;24016;52.102;11.584;2024-02-23T01:27:20;1.17;;;0.63;;
38208;SDS011;24016;52.102;11.584;2024-02-23T01:29:46;3.47;;;0.60;;
38208;SDS011;24016;52.102;11.584;2024-02-23T01:32:12;2.40;;;0.77;;
38208;SDS011;24016;52.102;11.584;2024-02-23T01:34:38;1.30;;;0.50;;
38208;SDS011;24016;52.102;11.584;2024-02-23T01:37:03;1.00;;;0.60;;
38208;SDS011;24016;52.102;11.584;2024-02-23T01:39:29;0.60;;;0.40;;
38208;SDS011;24016;52.102;11.584;2024-02-23T01:41:54;1.65;;;0.60;;
38208;SDS011;24016;52.102;11.584;2024-02-23T01:44:20;1.33;;;0.43;;
38208;SDS011;24016;52.102;11.584;2024-02-23T01:46:46;1.05;;;0.40;;
38208;SDS011;24016;52.102;11.584;2024-02-23T01:49:12;0.95;;;0.65;;
38208;SDS011;24016;52.102;11.584;2024-02-23T01:51:38;0.55;;;0.40;;
38208;SDS011;24016;52.102;11.584;2024-02-23T01:54:04;1.52;;;0.50;;
38208;SDS011;24016;52.102;11.584;2024-02-23T01:56:31;1.00;;;0.52;;
38208;SDS011;24016;52.102;11.584;2024-02-23T01:58:58;0.55;;;0.40;;
38208;SDS011;24016;52.102;11.584;2024-02-23T02:01:24;3.35;;;0.40;;
38208;SDS011;24016;52.102;11.584;2024-02-23T02:03:50;1.15;;;0.43;;
38208;SDS011;24016;52.102;11.584;2024-02-23T02:06:15;1.75;;;0.47;;
38208;SDS011;24016;52.102;11.584;2024-02-23T02:08:41;1.35;;;0.47;;
38208;SDS011;24016;52.102;11.584;2024-02-23T02:11:06;2.05;;;0.52;;
38208;SDS011;24016;52.102;11.584;2024-02-23T02:13:32;0.98;;;0.40;;
38208;SDS011;24016;52.102;11.584;2024-02-23T02:16:01;3.33;;;0.70;;
38208;SDS011;24016;52.102;11.584;2024-02-23T02:18:27;0.43;;;0.35;;
38208;SDS011;24016;52.102;11.584;2024-02-23T02:20:55;0.60;;;0.40;;
38208;SDS011;24016;52.102;11.584;2024-02-23T02:23:22;1.85;;;0.52;;
38208;SDS011;24016;52.102;11.584;2024-02-23T02:25:55;1.90;;;0.30;;
38208;SDS011;24016;52.102;11.584;2024-02-23T02:28:21;2.13;;;0.63;;
38208;SDS011;24016;52.102;11.584;2024-02-23T02:33:23;2.35;;;0.47;;
38208;SDS011;24016;52.102;11.584;2024-02-23T02:35:49;1.05;;;0.60;;
38208;SDS011;24016;52.102;11.584;2024-02-23T02:38:15;1.17;;;0.75;;
38208;SDS011;24016;52.102;11.584;2024-02-23T02:40:41;1.67;;;1.00;;
38208;SDS011;24016;52.102;11.584;2024-02-23T02:43:06;1.73;;;0.68;;
38208;SDS011;24016;52.102;11.584;2024-02-23T02:45:33;2.00;;;0.50;;
38208;SDS011;24016;52.102;11.584;2024-02-23T02:48:02;0.57;;;0.30;;
38208;SDS011;24016;52.102;11.584;2024-02-23T02:50:33;1.50;;;0.50;;
38208;SDS011;24016;52.102;11.584;2024-02-23T02:52:59;2.97;;;0.60;;
38208;SDS011;24016;52.102;11.584;2024-02-23T02:55:25;0.93;;;0.52;;
38208;SDS011;24016;52.102;11.584;2024-02-23T02:57:51;0.93;;;0.45;;
38208;SDS011;24016;52.102;11.584;2024-02-23T03:00:16;0.77;;;0.50;;
38208;SDS011;24016;52.102;11.584;2024-02-23T03:02:42;3.83;;;0.70;;
38208;SDS011;24016;52.102;11.584;2024-02-23T03:05:08;0.45;;;0.40;;
38208;SDS011;24016;52.102;11.584;2024-02-23T03:07:33;2.72;;;0.60;;
38208;SDS011;24016;52.102;11.584;2024-02-23T03:10:05;1.45;;;0.32;;
38208;SDS011;24016;52.102;11.584;2024-02-23T03:12:31;0.30;;;0.30;;
38208;SDS011;24016;52.102;11.584;2024-02-23T03:14:57;0.68;;;0.40;;
38208;SDS011;24016;52.102;11.584;2024-02-23T03:17:25;0.60;;;0.30;;
38208;SDS011;24016;52.102;11.584;2024-02-23T03:19:54;0.50;;;0.43;;
38208;SDS011;24016;52.102;11.584;2024-02-23T03:22:20;0.82;;;0.38;;
38208;SDS011;24016;52.102;11.584;2024-02-23T03:24:46;0.45;;;0.40;;
38208;SDS011;24016;52.102;11.584;2024-02-23T03:27:13;0.82;;;0.50;;
38208;SDS011;24016;52.102;11.584;2024-02-23T03:29:39;0.50;;;0.40;;
38208;SDS011;24016;52.102;11.584;2024-02-23T03:32:05;1.17;;;0.40;;
38208;SDS011;24016;52.102;11.584;2024-02-23T03:34:32;1.15;;;0.40;;
38208;SDS011;24016;52.102;11.584;2024-02-23T03:37:00;0.68;;;0.50;;
38208;SDS011;24016;52.102;11.584;2024-02-23T03:39:27;0.70;;;0.40;;
38208;SDS011;24016;52.102;11.584;2024-02-23T03:41:54;0.50;;;0.40;;
38208;SDS011;24016;52.102;11.584;2024-02-23T03:44:20;1.25;;;0.40;;
38208;SDS011;24016;52.102;11.584;2024-02-23T03:46:45;0.28;;;0.28;;
38208;SDS011;24016;52.102;11.584;2024-02-23T03:49:11;0.65;;;0.38;;
38208;SDS011;24016;52.102;11.584;2024-02-23T03:51:37;0.43;;;0.40;;
38208;SDS011;24016;52.102;11.584;2024-02-23T03:54:06;0.73;;;0.40;;
38208;SDS011;24016;52.102;11.584;2024-02-23T03:56:40;0.40;;;0.40;;
38208;SDS011;24016;52.102;11.584;2024-02-23T03:59:08;0.50;;;0.30;;
38208;SDS011;24016;52.102;11.584;2024-02-23T04:01:37;1.13;;;0.40;;
38208;SDS011;24016;52.102;11.584;2024-02-23T04:04:04;0.30;;;0.30;;
38208;SDS011;24016;52.102;11.584;2024-02-23T04:06:30;0.20;;;0.20;;
38208;SDS011;24016;52.102;11.584;2024-02-23T04:09:00;0.40;;;0.40;;
38208;SDS011;24016;52.102;11.584;2024-02-23T04:11:31;0.28;;;0.28;;
38208;SDS011;24016;52.102;11.584;2024-02-23T04:13:58;1.30;;;0.30;;
38208;SDS011;24016;52.102;11.584;2024-02-23T04:16:25;0.40;;;0.40;;
38208;SDS011;24016;52.102;11.584;2024-02-23T04:18:51;0.50;;;0.50;;
38208;SDS011;24016;52.102;11.584;2024-02-23T04:21:20;0.30;;;0.30;;
38208;SDS011;24016;52.102;11.584;2024-02-23T04:23:45;1.02;;;0.50;;
38208;SDS011;24016;52.102;11.584;2024-02-23T04:26:11;0.68;;;0.50;;
38208;SDS011;24016;52.102;11.584;2024-02-23T04:28:42;0.43;;;0.43;;
38208;SDS011;24016;52.102;11.584;2024-02-23T04:31:08;0.60;;;0.60;;
38208;SDS011;24016;52.102;11.584;2024-02-23T04:33:36;0.30;;;0.30;;
38208;SDS011;24016;52.102;11.584;2024-02-23T04:36:06;0.50;;;0.50;;
38208;SDS011;24016;52.102;11.584;2024-02-23T04:38:32;0.73;;;0.50;;
38208;SDS011;24016;52.102;11.584;2024-02-23T04:41:02;0.50;;;0.50;;
38208;SDS011;24016;52.102;11.584;2024-02-23T04:43:29;0.57;;;0.52;;
38208;SDS011;24016;52.102;11.584;2024-02-23T04:45:58;0.60;;;0.60;;
38208;SDS011;24016;52.102;11.584;2024-02-23T04:48:23;0.50;;;0.50;;
38208;SDS011;24016;52.102;11.584;2024-02-23T04:50:50;0.65;;;0.60;;
38208;SDS011;24016;52.102;11.584;2024-02-23T04:53:16;0.68;;;0.68;;
38208;SDS011;24016;52.102;11.584;2024-02-23T04:55:42;0.55;;;0.55;;
38208;SDS011;24016;52.102;11.584;2024-02-23T04:58:07;0.50;;;0.50;;
38208;SDS011;24016;52.102;11.584;2024-02-23T05:00:34;0.68;;;0.68;;
38208;SDS011;24016;52.102;11.584;2024-02-23T05:03:00;0.60;;;0.60;;
38208;SDS011;24016;52.102;11.584;2024-02-23T05:05:28;0.60;;;0.60;;
38208;SDS011;24016;52.102;11.584;2024-02-23T05:07:56;0.82;;;0.80;;
38208;SDS011;24016;52.102;11.584;2024-02-23T05:10:23;0.95;;;0.80;;
38208;SDS011;24016;52.102;11.584;2024-02-23T05:12:49;0.70;;;0.70;;
38208;SDS011;24016;52.102;11.584;2024-02-23T05:15:19;1.27;;;1.00;;
38208;SDS011;24016;52.102;11.584;2024-02-23T05:17:45;1.13;;;0.90;;
38208;SDS011;24016;52.102;11.584;2024-02-23T05:20:12;1.23;;;0.80;;
38208;SDS011;24016;52.102;11.584;2024-02-23T05:22:39;0.80;;;0.70;;
38208;SDS011;24016;52.102;11.584;2024-02-23T05:25:05;1.00;;;0.80;;
38208;SDS011;24016;52.102;11.584;2024-02-23T05:27:31;0.80;;;0.80;;
38208;SDS011;24016;52.102;11.584;2024-02-23T05:29:58;2.05;;;0.77;;
38208;SDS011;24016;52.102;11.584;2024-02-23T05:32:25;2.00;;;0.70;;
38208;SDS011;24016;52.102;11.584;2024-02-23T05:34:52;1.58;;;0.80;;
38208;SDS011;24016;52.102;11.584;2024-02-23T05:37:22;0.95;;;0.70;;
38208;SDS011;24016;52.102;11.584;2024-02-23T05:39:49;1.85;;;0.70;;
38208;SDS011;24016;52.102;11.584;2024-02-23T05:42:15;0.50;;;0.50;;
38208;SDS011;24016;52.102;11.584;2024-02-23T05:44:43;0.60;;;0.60;;
38208;SDS011;24016;52.102;11.584;2024-02-23T05:47:11;0.93;;;0.60;;
38208;SDS011;24016;52.102;11.584;2024-02-23T05:49:38;1.00;;;0.88;;
38208;SDS011;24016;52.102;11.584;2024-02-23T05:52:04;0.82;;;0.75;;
38208;SDS011;24016;52.102;11.584;2024-02-23T05:54:31;1.35;;;0.85;;
38208;SDS011;24016;52.102;11.584;2024-02-23T05:56:56;0.77;;;0.60;;
38208;SDS011;24016;52.102;11.584;2024-02-23T05:59:22;0.77;;;0.70;;
38208;SDS011;24016;52.102;11.584;2024-02-23T06:01:48;0.88;;;0.70;;
38208;SDS011;24016;52.102;11.584;2024-02-23T06:04:21;0.63;;;0.63;;
38208;SDS011;24016;52.102;11.584;2024-02-23T06:06:48;1.20;;;0.70;;
38208;SDS011;24016;52.102;11.584;2024-02-23T06:09:17;0.93;;;0.80;;
38208;SDS011;24016;52.102;11.584;2024-02-23T06:11:43;1.60;;;0.90;;
38208;SDS011;24016;52.102;11.584;2024-02-23T06:14:09;2.97;;;1.10;;
38208;SDS011;24016;52.102;11.584;2024-02-23T06:16:36;3.20;;;1.10;;
38208;SDS011;24016;52.102;11.584;2024-02-23T06:19:02;1.83;;;0.80;;
38208;SDS011;24016;52.102;11.584;2024-02-23T06:21:28;2.03;;;0.68;;
38208;SDS011;24016;52.102;11.584;2024-02-23T06:23:54;0.70;;;0.50;;
38208;SDS011;24016;52.102;11.584;2024-02-23T06:26:20;0.95;;;0.60;;
38208;SDS011;24016;52.102;11.584;2024-02-23T06:28:45;1.92;;;0.80;;
38208;SDS011;24016;52.102;11.584;2024-02-23T06:31:11;0.82;;;0.70;;
38208;SDS011;24016;52.102;11.584;2024-02-23T06:33:36;1.08;;;0.70;;
38208;SDS011;24016;52.102;11.584;2024-02-23T06:36:02;0.43;;;0.43;;
38208;SDS011;24016;52.102;11.584;2024-02-23T06:38:28;1.40;;;0.75;;
38208;SDS011;24016;52.102;11.584;2024-02-23T06:40:54;2.40;;;0.82;;
38208;SDS011;24016;52.102;11.584;2024-02-23T06:43:21;0.93;;;0.80;;
38208;SDS011;24016;52.102;11.584;2024-02-23T06:45:46;5.50;;;1.20;;
38208;SDS011;24016;52.102;11.584;2024-02-23T06:48:12;3.85;;;1.10;;
38208;SDS011;24016;52.102;11.584;2024-02-23T06:50:37;1.50;;;0.93;;
38208;SDS011;24016;52.102;11.584;2024-02-23T06:53:03;1.23;;;0.80;;
38208;SDS011;24016;52.102;11.584;2024-02-23T06:55:28;1.38;;;0.75;;
38208;SDS011;24016;52.102;11.584;2024-02-23T06:57:54;1.55;;;0.90;;
38208;SDS011;24016;52.102;11.584;2024-02-23T07:00:20;2.33;;;0.80;;
38208;SDS011;24016;52.102;11.584;2024-02-23T07:02:49;2.53;;;1.67;;
38208;SDS011;24016;52.102;11.584;2024-02-23T07:05:14;6.57;;;1.80;;
38208;SDS011;24016;52.102;11.584;2024-02-23T07:07:40;2.13;;;1.20;;
38208;SDS011;24016;52.102;11.584;2024-02-23T07:10:06;1.20;;;1.00;;
38208;SDS011;24016;52.102;11.584;2024-02-23T07:12:32;1.15;;;0.90;;
38208;SDS011;24016;52.102;11.584;2024-02-23T07:14:57;4.57;;;1.17;;
38208;SDS011;24016;52.102;11.584;2024-02-23T07:17:23;3.13;;;1.02;;
38208;SDS011;24016;52.102;11.584;2024-02-23T07:19:49;2.03;;;0.85;;
38208;SDS011;24016;52.102;11.584;2024-02-23T07:22:15;5.22;;;1.15;;
38208;SDS011;24016;52.102;11.584;2024-02-23T07:24:43;1.77;;;0.90;;
38208;SDS011;24016;52.102;11.584;2024-02-23T07:27:08;1.77;;;1.08;;
38208;SDS011;24016;52.102;11.584;2024-02-23T07:29:34;1.58;;;0.85;;
38208;SDS011;24016;52.102;11.584;2024-02-23T07:32:00;2.15;;;0.80;;
38208;SDS011;24016;52.102;11.584;2024-02-23T07:34:25;2.70;;;0.80;;
38208;SDS011;24016;52.102;11.584;2024-02-23T07:36:51;3.13;;;0.73;;
38208;SDS011;24016;52.102;11.584;2024-02-23T07:39:22;1.48;;;0.75;;
38208;SDS011;24016;52.102;11.584;2024-02-23T07:41:47;2.45;;;0.70;;
38208;SDS011;24016;52.102;11.584;2024-02-23T07:44:13;3.00;;;1.02;;
38208;SDS011;24016;52.102;11.584;2024-02-23T07:46:39;0.75;;;0.65;;
38208;SDS011;24016;52.102;11.584;2024-02-23T07:49:04;1.17;;;0.90;;
38208;SDS011;24016;52.102;11.584;2024-02-23T07:51:33;1.27;;;0.73;;
38208;SDS011;24016;52.102;11.584;2024-02-23T07:53:58;0.68;;;0.55;;
38208;SDS011;24016;52.102;11.584;2024-02-23T07:56:24;1.95;;;0.57;;
38208;SDS011;24016;52.102;11.584;2024-02-23T07:58:50;2.08;;;0.90;;
38208;SDS011;24016;52.102;11.584;2024-02-23T08:01:16;3.15;;;1.25;;
38208;SDS011;24016;52.102;11.584;2024-02-23T08:03:42;4.32;;;1.95;;
38208;SDS011;24016;52.102;11.584;2024-02-23T08:06:07;4.35;;;1.58;;
38208;SDS011;24016;52.102;11.584;2024-02-23T08:08:33;3.45;;;1.75;;
38208;SDS011;24016;52.102;11.584;2024-02-23T08:11:01;2.55;;;1.25;;
38208;SDS011;24016;52.102;11.584;2024-02-23T08:13:27;2.78;;;1.00;;
38208;SDS011;24016;52.102;11.584;2024-02-23T08:15:53;2.67;;;0.98;;
38208;SDS011;24016;52.102;11.584;2024-02-23T08:18:18;4.57;;;0.75;;
38208;SDS011;24016;52.102;11.584;2024-02-23T08:20:44;2.92;;;0.98;;
38208;SDS011;24016;52.102;11.584;2024-02-23T08:23:09;1.23;;;0.52;;
38208;SDS011;24016;52.102;11.584;2024-02-23T08:25:35;1.75;;;0.60;;
38208;SDS011;24016;52.102;11.584;2024-02-23T08:28:01;3.72;;;0.93;;
38208;SDS011;24016;52.102;11.584;2024-02-23T08:30:27;0.93;;;0.80;;
38208;SDS011;24016;52.102;11.584;2024-02-23T08:32:53;2.33;;;1.00;;
38208;SDS011;24016;52.102;11.584;2024-02-23T08:35:18;2.85;;;0.70;;
38208;SDS011;24016;52.102;11.584;2024-02-23T08:37:44;0.65;;;0.60;;
38208;SDS011;24016;52.102;11.584;2024-02-23T08:40:09;1.23;;;0.77;;
38208;SDS011;24016;52.102;11.584;2024-02-23T08:42:36;0.88;;;0.55;;
38208;SDS011;24016;52.102;11.584;2024-02-23T08:45:01;2.00;;;0.70;;
38208;SDS011;24016;52.102;11.584;2024-02-23T08:47:27;0.70;;;0.40;;
38208;SDS011;24016;52.102;11.584;2024-02-23T08:49:58;1.50;;;0.80;;
38208;SDS011;24016;52.102;11.584;2024-02-23T08:52:24;2.42;;;0.70;;
38208;SDS011;24016;52.102;11.584;2024-02-23T08:54:50;2.28;;;0.50;;
38208;SDS011;24016;52.102;11.584;2024-02-23T08:57:16;2.78;;;0.70;;
38208;SDS011;24016;52.102;11.584;2024-02-23T08:59:45;1.83;;;0.60;;
38208;SDS011;24016;52.102;11.584;2024-02-23T09:02:11;1.92;;;0.50;;
38208;SDS011;24016;52.102;11.584;2024-02-23T09:04:37;1.75;;;0.60;;
38208;SDS011;24016;52.102;11.584;2024-02-23T09:07:02;2.17;;;0.70;;
38208;SDS011;24016;52.102;11.584;2024-02-23T09:09:28;1.45;;;0.50;;
38208;SDS011;24016;52.102;11.584;2024-02-23T09:11:53;3.83;;;0.77;;
38208;SDS011;24016;52.102;11.584;2024-02-23T09:14:19;1.67;;;0.50;;
38208;SDS011;24016;52.102;11.584;2024-02-23T09:16:44;2.20;;;0.50;;
38208;SDS011;24016;52.102;11.584;2024-02-23T09:19:12;2.55;;;0.60;;
38208;SDS011;24016;52.102;11.584;2024-02-23T09:21:37;1.13;;;0.57;;
38208;SDS011;24016;52.102;11.584;2024-02-23T09:24:03;1.40;;;0.60;;
38208;SDS011;24016;52.102;11.584;2024-02-23T09:26:29;3.83;;;0.55;;
38208;SDS011;24016;52.102;11.584;2024-02-23T09:28:56;1.60;;;0.60;;
38208;SDS011;24016;52.102;11.584;2024-02-23T09:31:27;1.58;;;0.50;;
38208;SDS011;24016;52.102;11.584;2024-02-23T09:33:54;2.20;;;0.60;;
38208;SDS011;24016;52.102;11.584;2024-02-23T09:36:20;0.68;;;0.40;;
38208;SDS011;24016;52.102;11.584;2024-02-23T09:38:45;1.58;;;0.60;;
38208;SDS011;24016;52.102;11.584;2024-02-23T09:41:15;1.65;;;0.60;;
38208;SDS011;24016;52.102;11.584;2024-02-23T09:46:11;1.73;;;0.75;;
38208;SDS011;24016;52.102;11.584;2024-02-23T09:48:37;2.03;;;0.70;;
38208;SDS011;24016;52.102;11.584;2024-02-23T09:51:03;0.55;;;0.40;;
38208;SDS011;24016;52.102;11.584;2024-02-23T09:53:31;1.13;;;0.50;;
38208;SDS011;24016;52.102;11.584;2024-02-23T09:55:58;2.22;;;0.50;;
38208;SDS011;24016;52.102;11.584;2024-02-23T09:58:25;2.25;;;0.63;;
38208;SDS011;24016;52.102;11.584;2024-02-23T10:00:51;2.03;;;0.60;;
38208;SDS011;24016;52.102;11.584;2024-02-23T10:03:17;1.65;;;0.50;;
38208;SDS011;24016;52.102;11.584;2024-02-23T10:05:43;2.88;;;0.47;;
38208;SDS011;24016;52.102;11.584;2024-02-23T10:08:10;1.33;;;0.60;;
38208;SDS011;24016;52.102;11.584;2024-02-23T10:10:36;0.65;;;0.50;;
38208;SDS011;24016;52.102;11.584;2024-02-23T10:13:02;0.55;;;0.40;;
38208;SDS011;24016;52.102;11.584;2024-02-23T10:15:30;1.23;;;0.55;;
38208;SDS011;24016;52.102;11.584;2024-02-23T10:17:56;0.82;;;0.40;;
38208;SDS011;24016;52.102;11.584;2024-02-23T10:20:21;1.60;;;0.60;;
38208;SDS011;24016;52.102;11.584;2024-02-23T10:22:48;1.98;;;0.65;;
38208;SDS011;24016;52.102;11.584;2024-02-23T10:25:14;5.25;;;1.20;;
38208;SDS011;24016;52.102;11.584;2024-02-23T10:27:41;2.13;;;0.88;;
38208;SDS011;24016;52.102;11.584;2024-02-23T10:30:08;3.70;;;0.80;;
38208;SDS011;24016;52.102;11.584;2024-02-23T10:32:36;1.65;;;0.60;;
38208;SDS011;24016;52.102;11.584;2024-02-23T10:35:04;1.77;;;0.60;;
38208;SDS011;24016;52.102;11.584;2024-02-23T10:37:35;1.52;;;0.50;;
38208;SDS011;24016;52.102;11.584;2024-02-23T10:40:01;1.27;;;0.60;;
38208;SDS011;24016;52.102;11.584;2024-02-23T10:42:33;1.75;;;0.57;;
38208;SDS011;24016;52.102;11.584;2024-02-23T10:45:00;1.13;;;0.50;;
38208;SDS011;24016;52.102;11.584;2024-02-23T10:47:26;1.52;;;0.63;;
38208;SDS011;24016;52.102;11.584;2024-02-23T10:49:55;0.85;;;0.50;;
38208;SDS011;24016;52.102;11.584;2024-02-23T10:52:25;2.40;;;0.90;;
38208;SDS011;24016;52.102;11.584;2024-02-23T10:54:51;1.52;;;0.75;;
38208;SDS011;24016;52.102;11.584;2024-02-23T10:57:18;2.15;;;0.60;;
38208;SDS011;24016;52.102;11.584;2024-02-23T10:59:47;0.63;;;0.50;;
38208;SDS011;24016;52.102;11.584;2024-02-23T11:02:13;1.48;;;0.50;;
38208;SDS011;24016;52.102;11.584;2024-02-23T11:04:45;2.50;;;0.70;;
38208;SDS011;24016;52.102;11.584;2024-02-23T11:07:15;1.40;;;0.57;;
38208;SDS011;24016;52.102;11.584;2024-02-23T11:09:43;2.25;;;0.90;;
38208;SDS011;24016;52.102;11.584;2024-02-23T11:12:22;1.27;;;0.57;;
38208;SDS011;24016;52.102;11.584;2024-02-23T11:17:22;0.68;;;0.47;;
38208;SDS011;24016;52.102;11.584;2024-02-23T11:19:51;1.20;;;0.60;;
38208;SDS011;24016;52.102;11.584;2024-02-23T11:22:26;1.30;;;0.70;;
38208;SDS011;24016;52.102;11.584;2024-02-23T11:24:53;1.67;;;0.75;;
38208;SDS011;24016;52.102;11.584;2024-02-23T11:27:24;2.00;;;0.60;;
38208;SDS011;24016;52.102;11.584;2024-02-23T11:30:01;2.53;;;0.75;;
38208;SDS011;24016;52.102;11.584;2024-02-23T11:32:36;1.67;;;0.60;;
38208;SDS011;24016;52.102;11.584;2024-02-23T11:35:03;0.70;;;0.50;;
38208;SDS011;24016;52.102;11.584;2024-02-23T11:37:30;2.78;;;0.95;;
38208;SDS011;24016;52.102;11.584;2024-02-23T11:39:56;1.60;;;0.60;;
38208;SDS011;24016;52.102;11.584;2024-02-23T11:42:23;1.63;;;0.77;;
38208;SDS011;24016;52.102;11.584;2024-02-23T11:44:49;1.73;;;0.63;;
38208;SDS011;24016;52.102;11.584;2024-02-23T11:47:15;1.60;;;0.70;;
38208;SDS011;24016;52.102;11.584;2024-02-23T11:49:42;1.55;;;0.73;;
38208;SDS011;24016;52.102;11.584;2024-02-23T11:52:07;2.42;;;1.02;;
38208;SDS011;24016;52.102;11.584;2024-02-23T11:54:34;2.55;;;0.82;;
38208;SDS011;24016;52.102;11.584;2024-02-23T11:57:00;2.85;;;0.65;;
38208;SDS011;24016;52.102;11.584;2024-02-23T11:59:26;1.85;;;0.75;;
38208;SDS011;24016;52.102;11.584;2024-02-23T12:01:51;1.70;;;0.98;;
38208;SDS011;24016;52.102;11.584;2024-02-23T12:04:17;1.23;;;0.70;;
38208;SDS011;24016;52.102;11.584;2024-02-23T12:06:42;1.52;;;0.60;;
38208;SDS011;24016;52.102;11.584;2024-02-23T12:09:08;2.38;;;0.80;;
38208;SDS011;24016;52.102;11.584;2024-02-23T12:11:34;1.42;;;0.68;;
38208;SDS011;24016;52.102;11.584;2024-02-23T12:14:00;2.20;;;0.85;;
38208;SDS011;24016;52.102;11.584;2024-02-23T12:16:32;2.35;;;0.80;;
38208;SDS011;24016;52.102;11.584;2024-02-23T12:19:00;2.00;;;0.70;;
38208;SDS011;24016;52.102;11.584;2024-02-23T12:21:26;4.18;;;0.90;;
38208;SDS011;24016;52.102;11.584;2024-02-23T12:23:52;2.17;;;0.73;;
38208;SDS011;24016;52.102;11.584;2024-02-23T12:26:18;1.98;;;0.93;;
38208;SDS011;24016;52.102;11.584;2024-02-23T12:28:44;2.17;;;0.70;;
38208;SDS011;24016;52.102;11.584;2024-02-23T12:31:10;2.70;;;0.85;;
38208;SDS011;24016;52.102;11.584;2024-02-23T12:33:40;1.52;;;0.70;;
38208;SDS011;24016;52.102;11.584;2024-02-23T12:36:06;1.00;;;0.65;;
38208;SDS011;24016;52.102;11.584;2024-02-23T12:38:32;2.20;;;0.60;;
38208;SDS011;24016;52.102;11.584;2024-02-23T12:41:01;1.33;;;0.75;;
38208;SDS011;24016;52.102;11.584;2024-02-23T12:43:27;2.78;;;0.52;;
38208;SDS011;24016;52.102;11.584;2024-02-23T12:45:54;2.15;;;0.80;;
38208;SDS011;24016;52.102;11.584;2024-02-23T12:48:20;1.92;;;0.80;;
38208;SDS011;24016;52.102;11.584;2024-02-23T12:50:47;1.65;;;0.60;;
38208;SDS011;24016;52.102;11.584;2024-02-23T12:56:08;1.92;;;0.60;;
38208;SDS011;24016;52.102;11.584;2024-02-23T12:58:38;3.35;;;0.80;;
38208;SDS011;24016;52.102;11.584;2024-02-23T13:01:04;1.90;;;0.80;;
38208;SDS011;24016;52.102;11.584;2024-02-23T13:03:31;1.48;;;0.70;;
38208;SDS011;24016;52.102;11.584;2024-02-23T13:05:58;1.30;;;0.73;;
38208;SDS011;24016;52.102;11.584;2024-02-23T13:08:24;2.83;;;1.00;;
38208;SDS011;24016;52.102;11.584;2024-02-23T13:10:50;2.92;;;0.77;;
38208;SDS011;24016;52.102;11.584;2024-02-23T13:13:16;2.65;;;0.80;;
38208;SDS011;24016;52.102;11.584;2024-02-23T13:15:43;2.88;;;1.08;;
38208;SDS011;24016;52.102;11.584;2024-02-23T13:18:09;4.95;;;1.13;;
38208;SDS011;24016;52.102;11.584;2024-02-23T13:20:37;2.60;;;0.80;;
38208;SDS011;24016;52.102;11.584;2024-02-23T13:23:03;1.15;;;0.68;;
38208;SDS011;24016;52.102;11.584;2024-02-23T13:25:30;3.60;;;1.20;;
38208;SDS011;24016;52.102;11.584;2024-02-23T13:27:56;1.55;;;0.85;;
38208;SDS011;24016;52.102;11.584;2024-02-23T13:30:22;3.72;;;1.10;;
38208;SDS011;24016;52.102;11.584;2024-02-23T13:32:48;2.40;;;0.80;;
38208;SDS011;24016;52.102;11.584;2024-02-23T13:35:14;1.67;;;0.80;;
38208;SDS011;24016;52.102;11.584;2024-02-23T13:37:40;5.75;;;1.17;;
38208;SDS011;24016;52.102;11.584;2024-02-23T13:40:07;3.65;;;0.80;;
38208;SDS011;24016;52.102;11.584;2024-02-23T13:42:34;3.47;;;0.90;;
38208;SDS011;24016;52.102;11.584;2024-02-23T13:45:00;2.70;;;0.95;;
38208;SDS011;24016;52.102;11.584;2024-02-23T13:47:25;1.90;;;0.70;;
38208;SDS011;24016;52.102;11.584;2024-02-23T13:49:51;1.75;;;0.68;;
38208;SDS011;24016;52.102;11.584;2024-02-23T13:52:16;3.50;;;1.10;;
38208;SDS011;24016;52.102;11.584;2024-02-23T13:54:42;0.70;;;0.70;;
38208;SDS011;24016;52.102;11.584;2024-02-23T13:57:07;4.60;;;1.00;;
38208;SDS011;24016;52.102;11.584;2024-02-23T13:59:33;2.65;;;0.80;;
38208;SDS011;24016;52.102;11.584;2024-02-23T14:01:59;3.72;;;1.10;;
38208;SDS011;24016;52.102;11.584;2024-02-23T14:04:25;3.75;;;1.17;;
38208;SDS011;24016;52.102;11.584;2024-02-23T14:06:51;2.92;;;1.05;;
38208;SDS011;24016;52.102;11.584;2024-02-23T14:09:16;4.70;;;1.30;;
38208;SDS011;24016;52.102;11.584;2024-02-23T14:11:42;3.90;;;0.95;;
38208;SDS011;24016;52.102;11.584;2024-02-23T14:14:08;3.33;;;0.93;;
38208;SDS011;24016;52.102;11.584;2024-02-23T14:16:33;2.28;;;1.13;;
38208;SDS011;24016;52.102;11.584;2024-02-23T14:18:59;2.60;;;1.48;;
38208;SDS011;24016;52.102;11.584;2024-02-23T14:21:25;2.97;;;1.20;;
38208;SDS011;24016;52.102;11.584;2024-02-23T14:23:51;2.92;;;1.10;;
38208;SDS011;24016;52.102;11.584;2024-02-23T14:26:17;3.90;;;1.42;;
38208;SDS011;24016;52.102;11.584;2024-02-23T14:28:42;3.92;;;1.10;;
38208;SDS011;24016;52.102;11.584;2024-02-23T14:31:08;3.10;;;1.50;;
38208;SDS011;24016;52.102;11.584;2024-02-23T14:33:34;3.90;;;1.27;;
38208;SDS011;24016;52.102;11.584;2024-02-23T14:35:59;2.95;;;1.10;;
38208;SDS011;24016;52.102;11.584;2024-02-23T14:38:25;3.83;;;1.30;;
38208;SDS011;24016;52.102;11.584;2024-02-23T14:40:50;3.05;;;1.40;;